createdAt,value
2019-03-05T00:01:56.238Z,0.50
2019-03-05T00:04:27.392Z,0.30
2019-03-05T00:06:58.846Z,0.20
2019-03-05T00:09:29.975Z,0.30
2019-03-05T00:12:00.929Z,0.30
2019-03-05T00:14:31.972Z,0.20
2019-03-05T00:17:03.265Z,0.20
2019-03-05T00:19:34.573Z,0.33
2019-03-05T00:22:05.777Z,0.27
2019-03-05T00:25:15.361Z,0.40
2019-03-05T00:28:18.896Z,0.40
2019-03-05T00:31:12.964Z,0.30
2019-03-05T00:34:19.329Z,0.25
2019-03-05T00:37:03.614Z,0.20
2019-03-05T00:40:12.724Z,0.20
2019-03-05T00:43:11.202Z,0.23
2019-03-05T00:46:36.889Z,0.10
2019-03-05T00:49:41.406Z,0.27
2019-03-05T00:52:53.835Z,0.10
2019-03-05T00:56:49.396Z,0.20
2019-03-05T01:00:18.301Z,0.40
2019-03-05T01:03:19.518Z,0.20
2019-03-05T01:06:26.733Z,0.10
2019-03-05T01:08:58.230Z,0.20
2019-03-05T01:11:29.420Z,0.63
2019-03-05T01:14:00.818Z,0.10
2019-03-05T01:16:34.362Z,0.10
2019-03-05T01:19:05.469Z,0.10
2019-03-05T01:21:36.526Z,0.03
2019-03-05T01:24:07.684Z,0.30
2019-03-05T01:26:39.313Z,0.50
2019-03-05T01:29:10.336Z,0.60
2019-03-05T01:32:19.225Z,0.88
2019-03-05T01:35:09.179Z,0.40
2019-03-05T01:37:40.603Z,0.67
2019-03-05T01:40:29.561Z,0.17
2019-03-05T01:43:00.624Z,0.30
2019-03-05T01:45:31.928Z,0.30
2019-03-05T01:48:03.412Z,0.20
2019-03-05T01:50:34.710Z,0.37
2019-03-05T01:53:06.098Z,0.30
2019-03-05T01:55:37.589Z,0.20
2019-03-05T01:58:08.802Z,0.03
2019-03-05T02:00:39.791Z,0.00
2019-03-05T02:03:10.997Z,0.10
2019-03-05T02:05:42.044Z,0.57
2019-03-05T02:08:13.166Z,0.23
2019-03-05T02:10:44.609Z,0.53
2019-03-05T02:13:16.213Z,0.20
2019-03-05T02:15:47.464Z,0.40
2019-03-05T02:18:20.965Z,0.33
2019-03-05T02:20:52.016Z,0.20
2019-03-05T02:24:07.321Z,0.33
2019-03-05T02:27:50.322Z,0.23
2019-03-05T02:31:29.692Z,0.10
2019-03-05T02:34:24.354Z,0.20
2019-03-05T02:37:53.219Z,0.30
2019-03-05T02:41:30.831Z,0.10
2019-03-05T02:45:05.562Z,0.23
2019-03-05T02:48:26.401Z,0.30
2019-03-05T02:51:36.773Z,0.10
2019-03-05T02:55:16.296Z,0.20
2019-03-05T02:57:45.528Z,0.13
2019-03-05T03:00:23.952Z,0.20
2019-03-05T03:03:01.758Z,0.00
2019-03-05T03:05:43.130Z,0.10
2019-03-05T03:08:14.497Z,0.17
2019-03-05T03:10:46.302Z,0.05
2019-03-05T03:13:17.825Z,0.37
2019-03-05T03:15:49.375Z,0.30
2019-03-05T03:18:21.697Z,0.10
2019-03-05T03:20:53.308Z,0.00
2019-03-05T03:23:24.383Z,0.20
2019-03-05T03:25:55.888Z,0.10
2019-03-05T03:28:27.085Z,0.40
2019-03-05T03:30:58.187Z,0.70
2019-03-05T03:33:29.666Z,0.13
2019-03-05T03:36:01.077Z,0.00
2019-03-05T03:38:32.390Z,0.10
2019-03-05T03:41:03.873Z,0.10
2019-03-05T03:43:35.096Z,0.20
2019-03-05T03:46:06.239Z,0.10
2019-03-05T03:48:37.302Z,0.10
2019-03-05T03:51:08.362Z,0.30
2019-03-05T03:53:39.697Z,0.20
2019-03-05T03:56:10.817Z,0.00
2019-03-05T03:58:41.960Z,0.10
2019-03-05T04:01:13.428Z,0.13
2019-03-05T04:03:44.656Z,0.35
2019-03-05T04:06:15.954Z,0.20
2019-03-05T04:08:47.203Z,0.20
2019-03-05T04:11:18.503Z,0.10
2019-03-05T04:13:49.795Z,0.25
2019-03-05T04:16:22.025Z,0.10
2019-03-05T04:18:52.987Z,0.17
2019-03-05T04:21:23.952Z,0.30
2019-03-05T04:23:55.171Z,0.10
2019-03-05T04:26:26.497Z,0.20
2019-03-05T04:28:57.516Z,0.37
2019-03-05T04:31:28.516Z,0.30
2019-03-05T04:34:00.048Z,0.60
2019-03-05T04:36:31.028Z,0.15
2019-03-05T04:39:02.524Z,0.47
2019-03-05T04:41:34.771Z,0.37
2019-03-05T04:44:06.036Z,0.10
2019-03-05T04:46:40.329Z,0.20
2019-03-05T04:49:29.166Z,0.10
2019-03-05T04:52:03.498Z,0.20
2019-03-05T04:54:34.720Z,0.30
2019-03-05T04:57:05.868Z,0.03
2019-03-05T04:59:37.431Z,0.33
2019-03-05T05:02:08.503Z,0.10
2019-03-05T05:04:40.363Z,0.10
2019-03-05T05:07:11.415Z,0.00
2019-03-05T05:09:42.883Z,0.07
2019-03-05T05:12:14.117Z,0.10
2019-03-05T05:14:45.317Z,0.30
2019-03-05T05:17:16.376Z,0.10
2019-03-05T05:19:47.350Z,0.03
2019-03-05T05:22:18.452Z,0.00
2019-03-05T05:24:49.615Z,0.10
2019-03-05T05:27:22.413Z,0.20
2019-03-05T05:29:53.471Z,0.10
2019-03-05T05:32:24.779Z,0.13
2019-03-05T05:34:56.593Z,0.30
2019-03-05T05:37:27.583Z,0.27
2019-03-05T05:40:23.081Z,0.28
2019-03-05T05:42:54.670Z,0.27
2019-03-05T05:45:28.898Z,0.10
2019-03-05T05:48:00.099Z,0.13
2019-03-05T05:50:31.316Z,0.10
2019-03-05T05:53:02.325Z,0.10
2019-03-05T05:55:33.298Z,0.30
2019-03-05T05:58:05.501Z,0.05
2019-03-05T06:00:40.899Z,0.20
2019-03-05T06:03:15.092Z,0.83
2019-03-05T06:05:46.593Z,0.10
2019-03-05T06:08:17.934Z,0.30
2019-03-05T06:10:49.243Z,0.20
2019-03-05T06:13:20.312Z,0.20
2019-03-05T06:15:52.247Z,0.13
2019-03-05T06:18:23.222Z,0.10
2019-03-05T06:20:54.701Z,0.10
2019-03-05T06:23:25.763Z,0.10
2019-03-05T06:25:57.458Z,0.20
2019-03-05T06:28:29.075Z,0.20
2019-03-05T06:31:00.536Z,0.10
2019-03-05T06:33:32.092Z,0.40
2019-03-05T06:36:03.383Z,0.25
2019-03-05T06:38:34.631Z,0.10
2019-03-05T06:41:11.203Z,0.10
2019-03-05T06:43:44.754Z,0.10
2019-03-05T06:46:16.091Z,0.10
2019-03-05T06:48:48.387Z,0.20
2019-03-05T06:51:19.933Z,0.30
2019-03-05T06:53:52.259Z,0.10
2019-03-05T06:56:23.667Z,0.20
2019-03-05T06:58:54.709Z,0.20
2019-03-05T07:01:26.163Z,0.10
2019-03-05T07:03:57.515Z,0.62
2019-03-05T07:06:57.375Z,0.30
2019-03-05T07:10:17.338Z,0.07
2019-03-05T07:13:00.630Z,0.40
2019-03-05T07:16:00.512Z,0.10
2019-03-05T07:18:46.299Z,0.33
2019-03-05T07:22:12.762Z,0.40
2019-03-05T07:24:52.221Z,0.10
2019-03-05T07:27:40.963Z,0.40
2019-03-05T07:30:23.095Z,0.17
2019-03-05T07:32:55.068Z,0.10
2019-03-05T07:35:31.382Z,0.20
2019-03-05T07:38:02.724Z,0.23
2019-03-05T07:40:33.766Z,0.23
2019-03-05T07:43:05.009Z,0.10
2019-03-05T07:45:36.136Z,0.23
2019-03-05T07:48:07.511Z,0.10
2019-03-05T07:50:38.962Z,0.10
2019-03-05T07:53:09.953Z,0.20
2019-03-05T07:55:40.919Z,0.20
2019-03-05T07:58:11.911Z,0.20
2019-03-05T08:00:42.935Z,0.57
2019-03-05T08:03:14.664Z,0.10
2019-03-05T08:05:47.520Z,0.50
2019-03-05T08:09:13.388Z,0.37
2019-03-05T08:11:44.838Z,0.30
2019-03-05T08:15:01.910Z,0.30
2019-03-05T08:17:33.501Z,0.55
2019-03-05T08:20:05.371Z,0.60
2019-03-05T08:22:36.724Z,0.37
2019-03-05T08:25:09.578Z,0.47
2019-03-05T08:27:40.796Z,0.30
2019-03-05T08:30:15.023Z,0.30
2019-03-05T08:32:46.207Z,0.45
2019-03-05T08:35:17.271Z,0.50
2019-03-05T08:37:48.480Z,0.20
2019-03-05T08:40:19.685Z,0.40
2019-03-05T08:42:51.990Z,0.40
2019-03-05T08:45:29.190Z,0.30
2019-03-05T08:47:57.174Z,0.40
2019-03-05T08:50:28.153Z,0.20
2019-03-05T08:53:00.332Z,0.23
2019-03-05T08:55:32.935Z,0.23
2019-03-05T08:58:04.261Z,0.20
2019-03-05T09:00:35.862Z,0.20
2019-03-05T09:03:07.028Z,0.30
2019-03-05T09:05:38.071Z,0.43
2019-03-05T09:08:09.849Z,0.30
2019-03-05T09:10:40.996Z,0.20
2019-03-05T09:13:12.778Z,0.23
2019-03-05T09:15:43.986Z,0.20
2019-03-05T09:18:15.770Z,0.30
2019-03-05T09:20:47.474Z,0.77
2019-03-05T09:23:18.815Z,0.20
2019-03-05T09:25:50.538Z,0.10
2019-03-05T09:28:22.511Z,0.10
2019-03-05T09:30:53.882Z,0.20
2019-03-05T09:33:24.890Z,0.23
2019-03-05T09:35:56.281Z,0.37
2019-03-05T09:38:29.163Z,0.13
2019-03-05T09:41:01.366Z,0.30
2019-03-05T09:43:32.691Z,0.17
2019-03-05T09:46:04.105Z,0.17
2019-03-05T09:48:35.371Z,0.60
2019-03-05T09:51:06.605Z,0.20
2019-03-05T09:53:37.804Z,0.37
2019-03-05T09:56:08.900Z,0.10
2019-03-05T09:58:41.633Z,0.30
2019-03-05T10:01:13.015Z,0.35
2019-03-05T10:03:44.536Z,0.60
2019-03-05T10:06:16.045Z,0.20
2019-03-05T10:08:47.422Z,0.23
2019-03-05T10:11:19.355Z,0.20
2019-03-05T10:13:50.626Z,0.60
2019-03-05T10:16:22.055Z,0.80
2019-03-05T10:18:53.521Z,0.25
2019-03-05T10:21:24.886Z,0.20
2019-03-05T10:23:56.129Z,0.50
2019-03-05T10:26:29.184Z,0.20
2019-03-05T10:29:00.645Z,0.40
2019-03-05T10:31:33.285Z,0.40
2019-03-05T10:34:06.557Z,0.43
2019-03-05T10:36:37.528Z,0.20
2019-03-05T10:39:30.788Z,0.27
2019-03-05T10:42:03.706Z,0.20
2019-03-05T10:44:35.337Z,0.40
2019-03-05T10:47:06.774Z,0.30
2019-03-05T10:49:40.128Z,0.43
2019-03-05T10:52:12.257Z,0.20
2019-03-05T10:54:44.180Z,0.40
2019-03-05T10:57:16.223Z,0.30
2019-03-05T10:59:47.835Z,0.30
2019-03-05T11:02:19.676Z,0.30
2019-03-05T11:04:52.384Z,0.53
2019-03-05T11:07:23.897Z,0.47
2019-03-05T11:09:55.796Z,0.20
2019-03-05T11:12:27.582Z,0.30
2019-03-05T11:14:59.653Z,0.60
2019-03-05T11:17:31.065Z,0.20
2019-03-05T11:20:02.409Z,0.30
2019-03-05T11:22:33.477Z,0.50
2019-03-05T11:25:04.739Z,0.33
2019-03-05T11:27:37.260Z,0.37
2019-03-05T11:30:12.328Z,0.40
2019-03-05T11:32:44.214Z,0.30
2019-03-05T11:35:19.133Z,0.35
2019-03-05T11:37:51.306Z,0.40
2019-03-05T11:40:22.773Z,0.40
2019-03-05T11:42:54.962Z,0.55
2019-03-05T11:45:27.391Z,0.40
2019-03-05T11:47:58.959Z,0.30
2019-03-05T11:50:30.419Z,0.20
2019-03-05T11:53:06.020Z,0.30
2019-03-05T11:55:37.490Z,0.40
2019-03-05T11:58:08.633Z,0.20
2019-03-05T12:00:57.191Z,0.20
2019-03-05T12:03:28.791Z,0.40
2019-03-05T12:05:59.898Z,0.27
2019-03-05T12:08:31.848Z,0.20
2019-03-05T12:11:02.986Z,0.20
2019-03-05T12:13:34.707Z,0.30
2019-03-05T12:16:15.171Z,0.27
2019-03-05T12:18:45.494Z,0.20
2019-03-05T12:21:16.979Z,0.47
2019-03-05T12:23:48.423Z,0.13
2019-03-05T12:26:19.779Z,0.50
2019-03-05T12:28:51.655Z,0.30
2019-03-05T12:31:23.602Z,0.20
2019-03-05T12:33:54.665Z,0.30
2019-03-05T12:36:25.993Z,0.30
2019-03-05T12:38:56.969Z,0.20
2019-03-05T12:41:28.727Z,0.20
2019-03-05T12:43:59.760Z,0.20
2019-03-05T12:46:30.777Z,0.70
2019-03-05T12:49:02.461Z,0.17
2019-03-05T12:51:33.959Z,0.53
2019-03-05T12:54:05.355Z,0.20
2019-03-05T12:56:37.312Z,0.20
2019-03-05T12:59:08.635Z,0.23
2019-03-05T13:01:40.159Z,0.20
2019-03-05T13:04:11.465Z,0.30
2019-03-05T13:06:43.191Z,0.40
2019-03-05T13:09:19.657Z,0.28
2019-03-05T13:11:51.003Z,0.20
2019-03-05T13:14:22.653Z,0.27
2019-03-05T13:16:53.642Z,0.50
2019-03-05T13:19:24.986Z,0.40
2019-03-05T13:21:56.441Z,0.10
2019-03-05T13:24:27.455Z,0.30
2019-03-05T13:26:59.736Z,0.50
2019-03-05T13:29:30.755Z,0.20
2019-03-05T13:32:02.228Z,0.30
2019-03-05T13:34:33.567Z,0.20
2019-03-05T13:37:05.138Z,0.57
2019-03-05T13:39:36.216Z,0.40
2019-03-05T13:42:07.994Z,0.40
2019-03-05T13:44:39.053Z,0.30
2019-03-05T13:47:13.338Z,0.30
2019-03-05T13:50:28.290Z,0.40
2019-03-05T13:53:39.967Z,0.40
2019-03-05T13:56:58.938Z,0.50
2019-03-05T13:59:51.954Z,0.50
2019-03-05T14:02:32.277Z,0.27
2019-03-05T14:05:50.079Z,0.30
2019-03-05T14:09:12.854Z,0.30
2019-03-05T14:11:44.954Z,0.30
2019-03-05T14:14:31.032Z,0.33
2019-03-05T14:17:19.868Z,0.30
2019-03-05T14:19:59.166Z,0.28
2019-03-05T14:22:30.252Z,0.40
2019-03-05T14:25:03.057Z,0.43
2019-03-05T14:27:34.116Z,0.20
2019-03-05T14:30:06.672Z,0.47
2019-03-05T14:32:37.773Z,0.30
2019-03-05T14:35:14.208Z,0.40
2019-03-05T14:37:45.839Z,0.20
2019-03-05T14:40:24.547Z,0.30
2019-03-05T14:42:55.060Z,0.20
2019-03-05T14:45:29.139Z,0.30
2019-03-05T14:48:02.238Z,0.43
2019-03-05T14:50:34.518Z,0.40
2019-03-05T14:53:06.169Z,0.60
2019-03-05T14:55:38.960Z,0.20
2019-03-05T14:58:10.377Z,0.30
2019-03-05T15:00:41.656Z,0.23
2019-03-05T15:03:12.766Z,0.30
2019-03-05T15:05:45.389Z,0.20
2019-03-05T15:08:17.432Z,0.20
2019-03-05T15:10:48.551Z,0.30
2019-03-05T15:13:20.505Z,0.30
2019-03-05T15:15:51.620Z,0.37
2019-03-05T15:18:23.048Z,0.83
2019-03-05T15:20:54.260Z,0.30
2019-03-05T15:23:26.166Z,0.20
2019-03-05T15:25:57.495Z,0.30
2019-03-05T15:28:29.317Z,0.30
2019-03-05T15:31:01.115Z,0.20
2019-03-05T15:33:32.114Z,0.30
2019-03-05T15:36:03.432Z,0.37
2019-03-05T15:38:34.803Z,0.43
2019-03-05T15:41:06.240Z,0.10
2019-03-05T15:43:37.347Z,0.23
2019-03-05T15:46:09.131Z,0.40
2019-03-05T15:48:40.430Z,0.45
2019-03-05T15:51:12.000Z,0.37
2019-03-05T15:56:15.092Z,0.20
2019-03-05T15:58:46.121Z,0.20
2019-03-05T16:01:22.182Z,0.40
2019-03-05T16:03:50.728Z,0.20
2019-03-05T16:06:21.739Z,0.30
2019-03-05T16:08:52.720Z,0.30
2019-03-05T16:11:24.582Z,0.30
2019-03-05T16:13:56.825Z,0.40
2019-03-05T16:16:29.118Z,0.20
2019-03-05T16:19:00.981Z,0.40
2019-03-05T16:21:32.620Z,0.30
2019-03-05T16:24:03.886Z,0.28
2019-03-05T16:26:35.013Z,0.27
2019-03-05T16:29:06.144Z,0.30
2019-03-05T16:31:57.284Z,0.30
2019-03-05T16:34:46.875Z,0.30
2019-03-05T16:37:31.135Z,0.50
2019-03-05T16:40:18.616Z,0.60
2019-03-05T16:43:21.521Z,1.27
2019-03-05T16:46:20.667Z,1.00
2019-03-05T16:49:11.070Z,0.68
2019-03-05T16:51:51.098Z,0.60
2019-03-05T16:54:28.901Z,0.20
2019-03-05T16:57:18.834Z,0.60
2019-03-05T17:00:09.061Z,0.30
2019-03-05T17:03:05.373Z,0.27
2019-03-05T17:05:50.481Z,0.50
2019-03-05T17:08:35.923Z,0.30
2019-03-05T17:11:21.575Z,0.37
2019-03-05T17:13:53.227Z,0.30
2019-03-05T17:16:25.679Z,0.30
2019-03-05T17:18:56.999Z,0.57
2019-03-05T17:21:29.703Z,0.40
2019-03-05T17:24:00.770Z,0.43
2019-03-05T17:26:32.703Z,0.47
2019-03-05T17:29:04.125Z,0.37
2019-03-05T17:31:35.264Z,0.23
2019-03-05T17:34:06.356Z,0.47
2019-03-05T17:36:37.665Z,0.20
2019-03-05T17:39:17.129Z,0.40
2019-03-05T17:41:48.823Z,0.30
2019-03-05T17:44:20.118Z,0.30
2019-03-05T17:46:51.804Z,0.40
2019-03-05T17:49:23.464Z,0.20
2019-03-05T17:51:54.521Z,0.28
2019-03-05T17:54:26.278Z,0.50
2019-03-05T17:56:57.714Z,0.13
2019-03-05T17:59:29.577Z,0.30
2019-03-05T18:02:00.614Z,0.37
2019-03-05T18:04:32.048Z,0.30
2019-03-05T18:07:03.576Z,0.33
2019-03-05T18:09:34.652Z,0.40
2019-03-05T18:12:06.306Z,0.20
2019-03-05T18:14:37.946Z,0.30
2019-03-05T18:17:09.516Z,0.20
2019-03-05T18:19:41.162Z,0.23
2019-03-05T18:22:12.123Z,0.20
2019-03-05T18:24:43.192Z,0.20
2019-03-05T18:27:14.311Z,0.30
2019-03-05T18:29:46.220Z,0.30
2019-03-05T18:32:17.501Z,0.30
2019-03-05T18:34:48.748Z,0.20
2019-03-05T18:37:20.060Z,0.10
2019-03-05T18:39:52.357Z,0.20
2019-03-05T18:42:24.036Z,0.10
2019-03-05T18:44:55.456Z,0.30
2019-03-05T18:47:26.771Z,0.20
2019-03-05T18:49:58.194Z,0.30
2019-03-05T18:52:30.391Z,0.30
2019-03-05T18:55:02.581Z,0.10
2019-03-05T18:57:35.825Z,0.30
2019-03-05T19:00:11.341Z,0.23
2019-03-05T19:02:44.036Z,0.20
2019-03-05T19:05:16.289Z,0.20
2019-03-05T19:07:47.412Z,0.20
2019-03-05T19:10:28.648Z,0.30
2019-03-05T19:13:01.997Z,0.40
2019-03-05T19:15:33.584Z,0.20
2019-03-05T19:18:05.109Z,0.30
2019-03-05T19:20:36.574Z,0.40
2019-03-05T19:23:07.622Z,0.30
2019-03-05T19:25:38.968Z,0.30
2019-03-05T19:28:11.505Z,0.40
2019-03-05T19:30:42.768Z,0.20
2019-03-05T19:33:13.912Z,0.30
2019-03-05T19:35:45.407Z,0.40
2019-03-05T19:38:16.808Z,0.30
2019-03-05T19:40:48.126Z,0.20
2019-03-05T19:43:19.416Z,0.27
2019-03-05T19:45:50.509Z,0.50
2019-03-05T19:48:21.796Z,0.30
2019-03-05T19:50:53.485Z,0.37
2019-03-05T19:53:24.769Z,0.37
2019-03-05T19:55:55.965Z,0.45
2019-03-05T19:58:27.210Z,0.70
2019-03-05T20:01:04.736Z,0.57
2019-03-05T20:03:36.146Z,0.50
2019-03-05T20:06:08.727Z,0.20
2019-03-05T20:08:40.544Z,0.55
2019-03-05T20:11:11.814Z,0.30
2019-03-05T20:13:43.178Z,0.85
2019-03-05T20:16:17.185Z,0.50
2019-03-05T20:18:48.526Z,0.57
2019-03-05T20:21:19.644Z,0.53
2019-03-05T20:23:50.917Z,0.30
2019-03-05T20:26:22.018Z,0.40
2019-03-05T20:28:53.552Z,0.30
2019-03-05T20:31:25.092Z,0.50
2019-03-05T20:33:57.039Z,0.42
2019-03-05T20:36:28.075Z,0.50
2019-03-05T20:39:00.883Z,0.34
2019-03-05T20:41:33.936Z,0.40
2019-03-05T20:44:05.739Z,0.60
2019-03-05T20:46:37.494Z,0.37
2019-03-05T20:49:08.765Z,0.50
2019-03-05T20:51:40.843Z,0.60
2019-03-05T20:54:13.269Z,0.63
2019-03-05T20:56:44.802Z,0.50
2019-03-05T20:59:16.055Z,0.60
2019-03-05T21:01:48.257Z,0.50
2019-03-05T21:04:19.691Z,0.60
2019-03-05T21:06:50.774Z,0.83
2019-03-05T21:09:23.915Z,1.00
2019-03-05T21:11:55.392Z,0.80
2019-03-05T21:14:26.858Z,0.67
2019-03-05T21:16:58.462Z,0.40
2019-03-05T21:19:30.078Z,0.50
2019-03-05T21:22:01.997Z,0.53
2019-03-05T21:24:33.437Z,0.55
2019-03-05T21:27:04.848Z,0.70
2019-03-05T21:29:36.178Z,0.50
2019-03-05T21:32:07.183Z,0.30
2019-03-05T21:34:38.542Z,0.40
2019-03-05T21:37:09.867Z,0.50
2019-03-05T21:39:41.518Z,0.60
2019-03-05T21:42:13.178Z,0.60
2019-03-05T21:44:44.423Z,0.50
2019-03-05T21:47:15.896Z,0.67
2019-03-05T21:49:47.354Z,0.97
2019-03-05T21:52:19.085Z,0.60
2019-03-05T21:54:50.447Z,0.98
2019-03-05T21:57:21.794Z,1.17
2019-03-05T21:59:53.845Z,0.73
2019-03-05T22:02:24.823Z,1.00
2019-03-05T22:04:56.642Z,0.83
2019-03-05T22:07:28.023Z,1.40
2019-03-05T22:10:00.479Z,0.90
2019-03-05T22:12:31.968Z,0.90
2019-03-05T22:15:03.503Z,1.30
2019-03-05T22:17:36.115Z,1.02
2019-03-05T22:20:09.201Z,1.00
2019-03-05T22:22:41.005Z,0.73
2019-03-05T22:25:14.907Z,1.12
2019-03-05T22:27:46.353Z,0.60
2019-03-05T22:30:23.567Z,1.00
2019-03-05T22:32:54.876Z,0.72
2019-03-05T22:35:26.848Z,0.97
2019-03-05T22:37:58.306Z,1.10
2019-03-05T22:40:30.462Z,0.87
2019-03-05T22:43:01.731Z,1.00
2019-03-05T22:45:32.889Z,0.80
2019-03-05T22:48:04.416Z,1.03
2019-03-05T22:50:35.661Z,0.80
2019-03-05T22:53:07.003Z,0.87
2019-03-05T22:55:38.382Z,0.80
2019-03-05T22:58:09.710Z,0.93
2019-03-05T23:01:06.613Z,1.07
2019-03-05T23:04:01.150Z,0.90
2019-03-05T23:06:32.718Z,0.70
2019-03-05T23:09:06.847Z,1.40
2019-03-05T23:11:40.190Z,2.27
2019-03-05T23:14:11.476Z,1.10
2019-03-05T23:16:43.022Z,1.13
2019-03-05T23:19:16.508Z,1.10
2019-03-05T23:21:47.636Z,1.00
2019-03-05T23:24:18.891Z,1.17
2019-03-05T23:26:50.177Z,0.77
2019-03-05T23:29:27.567Z,1.00
2019-03-05T23:32:00.551Z,1.24
2019-03-05T23:34:32.377Z,0.90
2019-03-05T23:37:03.623Z,0.60
2019-03-05T23:39:35.281Z,1.47
2019-03-05T23:42:06.346Z,1.27
2019-03-05T23:44:38.276Z,1.10
2019-03-05T23:47:10.593Z,0.90
2019-03-05T23:49:43.279Z,1.40
2019-03-05T23:52:14.683Z,1.25
2019-03-05T23:54:45.998Z,1.13
2019-03-05T23:57:17.277Z,1.20
2019-03-05T23:59:48.527Z,1.17
